createdAt,value
2023-08-08T00:00:09.307Z,100272.75
2023-08-08T00:03:21.741Z,100266.41
2023-08-08T00:05:59.543Z,100271.06
2023-08-08T00:11:14.299Z,100265.44
2023-08-08T00:13:53.304Z,100261.03
2023-08-08T00:16:29.261Z,100275.47
2023-08-08T00:19:05.642Z,100278.72
2023-08-08T00:21:48.341Z,100279.34
2023-08-08T00:24:25.483Z,100295.47
2023-08-08T00:27:02.463Z,100277.72
2023-08-08T00:29:43.722Z,100294.72
2023-08-08T00:32:47.298Z,100280.28
2023-08-08T00:35:33.150Z,100275.00
2023-08-08T00:38:20.264Z,100285.28
2023-08-08T00:40:55.751Z,100292.25
2023-08-08T00:43:39.790Z,100287.97
2023-08-08T00:46:29.260Z,100282.84
2023-08-08T00:49:14.054Z,100284.19
2023-08-08T00:51:55.661Z,100265.59
2023-08-08T00:54:35.881Z,100259.75
2023-08-08T00:57:32.645Z,100267.97
2023-08-08T01:00:08.893Z,100256.47
2023-08-08T01:03:04.786Z,100262.22
2023-08-08T01:05:44.300Z,100244.38
2023-08-08T01:08:38.483Z,100243.16
2023-08-08T01:11:12.130Z,100251.69
2023-08-08T01:14:05.030Z,100254.38
2023-08-08T01:16:47.376Z,100258.19
2023-08-08T01:19:28.370Z,100262.94
2023-08-08T01:22:06.966Z,100272.47
2023-08-08T01:24:42.195Z,100279.59
2023-08-08T01:28:03.865Z,100288.41
2023-08-08T01:30:37.513Z,100291.22
2023-08-08T01:33:12.017Z,100301.78
2023-08-08T01:35:56.920Z,100293.03
2023-08-08T01:38:51.808Z,100306.66
2023-08-08T01:41:36.327Z,100314.84
2023-08-08T01:44:10.983Z,100315.59
2023-08-08T01:46:42.156Z,100323.66
2023-08-08T01:49:19.836Z,100336.38
2023-08-08T01:51:59.063Z,100339.31
2023-08-08T01:55:13.575Z,100345.69
2023-08-08T01:57:51.720Z,100352.31
2023-08-08T02:00:31.205Z,100353.66
2023-08-08T02:03:07.324Z,100349.75
2023-08-08T02:05:40.986Z,100346.69
2023-08-08T02:08:12.640Z,100340.69
2023-08-08T02:10:51.153Z,100322.97
2023-08-08T02:13:19.900Z,100326.84
2023-08-08T02:15:50.318Z,100333.22
2023-08-08T02:19:07.942Z,100346.78
2023-08-08T02:21:41.483Z,100343.91
2023-08-08T02:24:12.894Z,100343.06
2023-08-08T02:26:45.093Z,100358.13
2023-08-08T02:29:15.129Z,100367.94
2023-08-08T02:31:42.532Z,100364.25
2023-08-08T02:34:38.695Z,100373.22
2023-08-08T02:40:01.776Z,100397.91
2023-08-08T02:42:45.432Z,100396.06
2023-08-08T02:45:17.182Z,100394.13
2023-08-08T02:47:49.403Z,100395.97
2023-08-08T02:50:27.277Z,100394.38
2023-08-08T02:53:06.293Z,100423.72
2023-08-08T02:55:47.215Z,100423.13
2023-08-08T02:58:20.520Z,100426.59
2023-08-08T03:01:23.357Z,100432.28
2023-08-08T03:03:59.275Z,100447.28
2023-08-08T03:07:36.228Z,100452.22
2023-08-08T03:10:12.394Z,100451.50
2023-08-08T03:13:00.527Z,100453.88
2023-08-08T03:15:30.764Z,100453.72
2023-08-08T03:18:31.774Z,100449.22
2023-08-08T03:26:44.535Z,100469.13
2023-08-08T03:32:16.118Z,100462.44
2023-08-08T03:34:50.236Z,100453.19
2023-08-08T03:40:59.171Z,100432.84
2023-08-08T03:43:51.314Z,100433.72
2023-08-08T03:47:18.666Z,100435.53
2023-08-08T03:52:45.369Z,100418.78
2023-08-08T03:55:17.119Z,100430.91
2023-08-08T03:57:47.917Z,100436.28
2023-08-08T04:00:30.539Z,100440.78
2023-08-08T04:19:58.077Z,100477.28
2023-08-08T04:37:05.895Z,100510.16
2023-08-08T04:54:50.785Z,100515.34
2023-08-08T05:06:06.361Z,100502.31
2023-08-08T05:13:07.016Z,100529.38
2023-08-08T05:22:56.665Z,100537.91
2023-08-08T05:29:20.712Z,100554.44
2023-08-08T06:16:00.672Z,100540.31
2023-08-08T07:14:17.554Z,100572.50
2023-08-08T07:50:25.288Z,100633.50
2023-08-08T10:40:29.310Z,100697.94
2023-08-08T10:43:15.122Z,100692.78
2023-08-08T10:46:07.862Z,100693.88
2023-08-08T10:59:29.486Z,100693.75
2023-08-08T11:02:47.265Z,100679.78
2023-08-08T13:11:50.338Z,100704.19
2023-08-08T13:54:45.667Z,100688.34
2023-08-08T14:25:18.941Z,100676.97
2023-08-08T16:11:23.347Z,100661.25
2023-08-08T17:28:05.953Z,100693.41
2023-08-08T17:38:37.895Z,100689.72
2023-08-08T18:46:35.992Z,100763.53
2023-08-08T19:15:09.863Z,100756.53
2023-08-08T19:26:36.083Z,100766.38
2023-08-08T19:38:33.747Z,100786.66
2023-08-08T20:04:32.302Z,100804.59
2023-08-08T20:10:37.302Z,100807.25
2023-08-08T21:06:46.024Z,100830.16
2023-08-08T21:09:52.177Z,100834.97
2023-08-08T21:15:48.758Z,100827.03
2023-08-08T21:18:52.951Z,100828.47
2023-08-08T21:21:32.020Z,100835.72
2023-08-08T21:24:49.610Z,100836.63
2023-08-08T21:31:44.095Z,100832.28
2023-08-08T21:50:47.433Z,100833.28
2023-08-08T21:56:27.653Z,100827.41
2023-08-08T21:59:00.220Z,100829.09
2023-08-08T22:05:32.673Z,100842.75
2023-08-08T22:08:49.154Z,100858.72
2023-08-08T22:11:36.917Z,100847.78
2023-08-08T22:14:10.503Z,100853.13
2023-08-08T22:16:58.963Z,100824.50
2023-08-08T22:19:35.064Z,100852.00
2023-08-08T22:22:18.458Z,100849.59
2023-08-08T22:24:57.976Z,100847.63
2023-08-08T22:30:41.928Z,100855.25
2023-08-08T22:33:14.103Z,100858.72
2023-08-08T22:35:54.767Z,100856.28
2023-08-08T22:38:46.169Z,100865.09
2023-08-08T22:41:35.493Z,100855.97
2023-08-08T22:44:08.107Z,100856.19
2023-08-08T22:46:37.098Z,100869.94
2023-08-08T22:49:25.894Z,100866.59
2023-08-08T22:54:41.294Z,100866.03
2023-08-08T22:57:18.630Z,100877.56
2023-08-08T23:00:13.718Z,100874.50
2023-08-08T23:02:57.279Z,100869.53
2023-08-08T23:05:34.580Z,100882.13
2023-08-08T23:08:27.470Z,100883.06
2023-08-08T23:11:02.525Z,100876.50
2023-08-08T23:13:33.546Z,100887.19
2023-08-08T23:16:10.729Z,100891.84
2023-08-08T23:19:20.655Z,100889.31
2023-08-08T23:24:55.604Z,100884.66
2023-08-08T23:30:13.538Z,100892.38
2023-08-08T23:32:46.784Z,100884.34
2023-08-08T23:35:44.349Z,100883.63
2023-08-08T23:38:12.721Z,100887.28
2023-08-08T23:40:42.097Z,100878.59
2023-08-08T23:43:23.023Z,100878.91
2023-08-08T23:45:54.406Z,100876.53
2023-08-08T23:48:29.355Z,100881.66
2023-08-08T23:50:58.962Z,100873.88
2023-08-08T23:53:32.202Z,100873.31
2023-08-08T23:56:05.027Z,100883.75
